This is the latest recevied weather packets stored in our database for station/object N1KM-15. If no packets are shown the sender has not sent any weather packets the latest 10 day(s).
| Time | Temp. | Humidity | Pressure | Rain* | Wind** | Luminosity | Snow |
|---|---|---|---|---|---|---|---|
| 1777916700 | 18.33° C | 53% | 1007.3 hPa | 0 mm | - | - | - |
| 1777915800 | 20° C | 39% | 1007 hPa | 0 mm | - | - | - |
| 1777914900 | 20° C | 37% | 1007 hPa | 0 mm | - | - | - |
| 1777914000 | 19.44° C | 36% | 1007.3 hPa | 0 mm | - | - | - |
| 1777913100 | 18.89° C | 40% | 1007.7 hPa | 0 mm | - | - | - |
| 1777912200 | 19.44° C | 39% | 1007.5 hPa | 0 mm | - | - | - |
| 1777911300 | 20° C | 36% | 1007.6 hPa | 0 mm | - | - | - |
| 1777910400 | 20° C | 36% | 1007.8 hPa | 0 mm | - | - | - |
| 1777909500 | 19.44° C | 37% | 1007.7 hPa | 0 mm | - | - | - |
| 1777908600 | 19.44° C | 39% | 1007.9 hPa | 0 mm | - | - | - |
| 1777907700 | 19.44° C | 38% | 1007.9 hPa | 0 mm | - | - | - |
| 1777906800 | 19.44° C | 39% | 1008 hPa | 0 mm | - | - | - |
| 1777905900 | 18.33° C | 42% | 1008.1 hPa | 0 mm | - | - | - |
| 1777905000 | 17.22° C | 45% | 1008.4 hPa | 0 mm | - | - | - |
| 1777904100 | 16.67° C | 46% | 1008.6 hPa | 0 mm | - | - | - |
| 1777903200 | 16.67° C | 47% | 1008.7 hPa | 0 mm | - | - | - |
| 1777902300 | 16.67° C | 46% | 1008.8 hPa | 0 mm | - | - | - |
| 1777901400 | 16.67° C | 45% | 1008.8 hPa | 0 mm | - | - | - |
| 1777900500 | 16.11° C | 47% | 1008.9 hPa | 0 mm | - | - | - |
| 1777899600 | 14.44° C | 50% | 1009.1 hPa | 0 mm | - | - | - |
| 1777898700 | 13.89° C | 52% | 1009.2 hPa | 0 mm | - | - | - |
| 1777897800 | 13.33° C | 54% | 1009.4 hPa | 0 mm | - | - | - |
| 1777896900 | 12.78° C | 54% | 1009.5 hPa | 0 mm | - | - | - |
| 1777896000 | 11.67° C | 59% | 1009.6 hPa | 0 mm | - | - | - |
| 1777895100 | 11.11° C | 59% | 1009.7 hPa | 0 mm | - | - | - |
* Rain since midnight (hover to see other rain measurements)
** Current wind speed in m/s (hover to see current wind gust speed)